Ana Sayfa
METAR-TAF:

METAR-TAF

Havaalanları :

Louis Armstrong New Orleans Uluslararası Havalimanı

New Orleans, Louisiana, Amerika Birleşik Devletleri

Enlem: 29-59-34N, Boylam: 090-15-03W, yükseklik: 1 m

Güncel hava durumu gözlemi

Rapor saat 19:53 UTC de 39 dakika önce yapıldı.
Rüzgar kuzeydan 14 kt ve 20 kt'a kadar ani rüzgarlar
Sıcaklık 11°C
Nem 35%
Basınç 1030 hPa
Görüş mesafesi: 16.1 km
Açık gökyüzü

METAR: KMSY 201953Z 35014G20KT 10SM CLR 11/M04 A3042 RMK AO2 SLP303 T01061044

Saat: 14:32 (20:32 UTC)

Tahmin

Rapor saat 17:20 UTC de 3 saat ve 12 dakika önce yapıldı.
Ayın 20'si saat 18 UTC'den ayın 21'si saat 24 UTC'ye kadar geçerli Tahmin
Rüzgar kuzeydan 12 kt ve 22 kt'a kadar ani rüzgarlar
Görüş mesafesi: 10 km
25000 ft yükseklikte az bulutlu
Ayın 20'si saat 2300 UTC'den
Rüzgar kuzeydan 10 kt ve 20 kt'a kadar ani rüzgarlar
Görüş mesafesi: 10 km
Açık gökyüzü

TAF: KMSY 201720Z 2018/2124 36012G22KT P6SM FEW250 FM202300 01010G20KT P6SM SKC

4.000'den fazla havaalanı için hava durumu gözlemleri ve tahminleri (METAR ve TAF raporları).

Kullanılabilir istasyonlar harita üzerinde sarı ve kırmızı noktalarla gösterilir.

İstasyonun adını görmek için fareyi noktanın üzerinde gezdirin.

Sonrasında hava gözlem ve tahminlerini görmek için tıklayın.

Haritayı değiştirmek için: yaklaştırmak için siyah artı işaretli yeşil düğmeye ve uzaklaştırmak için de eksi işaretli düğmeye hızla tıklayın; bitişik haritalar için yeşil okları kullanın.


METAR-TAF: